Latest Weather Observations for Port Macquarie Airport

IDN60801

Issued at 8:03 pm EDT Saturday 16 December 2017 (issued every 30 minutes, with the page automatically refreshed every 10 minutes)

About weather observations | Map of weather stations | Latest weather observations for NSW | Other Formats
Station Details ID: 060139 Name: PORT MACQUARIE AIRPORT AWS Lat: -31.43 Lon: 152.87 Height: 4.2 m
Data from the previous 72 hours. | See also: Recent months at Port Macquarie Airport
Date/Time
EDT
Temp
°C
App
Temp
°C
Dew
Point
°C
Rel
Hum
%
Delta-T
°C
Wind Press
QNH
hPa
Press
MSL
hPa
Rain since
9am
mm
Dir  Spd
km/h
Gust
km/h
Spd
kts
Gust
kts
16/08:00pm 24.2 25.1 20.1 78 2.7 NNE 15 22 8 12 1015.5 1015.5 0.0
16/07:30pm 24.5 23.9 20.4 78 2.7 NNE 24 32 13 17 1014.1 1014.1 0.0
16/07:00pm 24.6 24.3 20.3 77 2.8 NNE 22 33 12 18 1013.7 1013.7 0.0
16/06:30pm 24.7 24.9 20.6 78 2.7 NE 20 26 11 14 1013.9 1013.9 0.0
16/06:00pm 24.9 25.0 20.4 76 2.9 NNE 20 32 11 17 1014.2 1014.2 0.0
16/05:30pm 25.0 24.3 20.3 75 3.1 NE 24 35 13 19 1013.3 1013.3 0.0
16/05:00pm 25.6 23.2 20.4 73 3.4 NNE 33 46 18 25 1012.4 1012.4 0.0
16/04:30pm 26.5 24.5 19.9 67 4.3 NNE 30 41 16 22 1012.2 1012.2 0.0
16/04:00pm 27.8 26.5 20.6 65 4.7 NE 28 41 15 22 1012.5 1012.5 0.0
16/03:30pm 28.1 25.9 20.4 63 5.1 NE 32 44 17 24 1012.6 1012.6 0.0
16/03:00pm 28.2 25.8 20.0 61 5.4 NE 32 41 17 22 1012.8 1012.8 0.0
16/02:30pm 28.4 27.6 20.9 64 5.0 NE 26 35 14 19 1013.3 1013.3 0.0
16/02:00pm 27.0 25.7 20.6 68 4.2 NE 28 39 15 21 1013.4 1013.4 0.0
16/01:30pm 27.0 25.7 20.6 68 4.2 NE 28 39 15 21 1013.7 1013.7 0.0
16/01:00pm 28.3 27.3 21.3 65 4.7 NE 28 41 15 22 1014.2 1014.2 0.0
16/12:30pm 28.0 27.1 20.6 64 4.9 ENE 26 35 14 19 1014.5 1014.5 0.0
16/12:00pm 28.4 27.3 20.2 61 5.4 ENE 26 37 14 20 1014.7 1014.7 0.0
16/11:30am 29.2 28.0 19.2 54 6.5 ENE 24 33 13 18 1014.9 1014.9 0.0
16/11:00am 30.0 30.2 19.4 53 6.9 NE 17 24 9 13 1015.1 1015.1 0.0
16/10:30am 29.9 30.2 19.6 54 6.7 NNW 17 28 9 15 1015.3 1015.3 0.0
16/10:00am 28.1 27.9 18.5 56 6.1 N 17 24 9 13 1015.3 1015.3 0.0
16/09:30am 27.2 26.3 19.0 61 5.3 N 22 32 12 17 1015.4 1015.4 0.0
16/09:00am 26.0 25.7 19.2 66 4.4 N 19 26 10 14 1015.5 1015.5 0.0
16/08:30am 25.5 24.6 19.9 71 3.6 N 24 30 13 16 1015.4 1015.4 0.0
16/08:00am 24.2 23.6 19.7 76 2.9 N 22 30 12 16 1015.3 1015.3 0.0
16/07:30am 22.8 23.6 19.8 83 1.9 N 15 19 8 10 1015.3 1015.3 0.0
16/07:00am 21.2 22.5 19.3 89 1.2 N 11 13 6 7 1015.1 1015.1 0.0
16/06:30am 20.2 22.4 19.2 94 0.6 N 6 7 3 4 1015.0 1015.0 0.0
16/06:00am 19.8 21.6 18.8 94 0.6 N 7 9 4 5 1014.6 1014.6 0.0
16/05:30am 19.8 21.3 18.8 94 0.6 N 9 13 5 7 1014.2 1014.2 0.0
16/05:00am 20.0 21.3 18.5 91 0.9 N 9 11 5 6 1014.0 1014.0 0.0
16/04:30am 21.1 22.0 19.2 89 1.2 N 13 17 7 9 1013.9 1013.9 0.0
16/04:00am 21.7 22.7 19.4 87 1.5 NNE 13 19 7 10 1013.9 1013.9 0.0
16/03:30am 21.5 22.8 19.4 88 1.3 NNE 11 13 6 7 1014.0 1014.0 0.0
16/03:00am 21.4 23.1 19.3 88 1.3 NNE 9 11 5 6 1013.9 1013.9 0.0
16/02:30am 21.8 23.3 19.7 88 1.3 N 11 15 6 8 1014.2 1014.2 0.0
16/02:00am 22.3 23.2 20.0 87 1.5 NNE 15 19 8 10 1014.2 1014.2 0.0
16/01:30am 22.4 23.6 19.9 86 1.6 NNE 13 17 7 9 1014.3 1014.3 0.0
16/01:00am 22.5 23.7 19.9 85 1.7 NNE 13 17 7 9 1014.5 1014.5 0.0
16/12:30am 22.2 23.7 19.7 86 1.6 NNE 11 13 6 7 1014.8 1014.8 0.0
16/12:00am 21.8 24.5 19.5 87 1.5 NNE 4 11 2 6 1014.8 1014.8 0.0
 
Date/Time
EDT
Temp
°C
App
Temp
°C
Dew
Point
°C
Rel
Hum
%
Delta-T
°C
Wind Press
QNH
hPa
Press
MSL
hPa
Rain since
9am
mm
Dir  Spd
km/h
Gust
km/h
Spd
kts
Gust
kts
15/11:30pm 22.3 24.2 19.7 85 1.7 NE 9 11 5 6 1014.8 1014.8 0.0
15/11:00pm 22.6 24.9 19.9 85 1.7 NNE 7 11 4 6 1015.0 1015.0 0.0
15/10:30pm 22.8 24.5 20.1 85 1.7 NNE 11 17 6 9 1014.9 1014.9 0.0
15/10:00pm 23.0 24.7 20.1 84 1.9 NNE 11 15 6 8 1014.8 1014.8 0.0
15/09:30pm 23.4 25.3 20.5 84 1.9 NNE 11 15 6 8 1014.6 1014.6 0.0
15/09:00pm 23.3 25.0 20.2 83 2.0 NNE 11 15 6 8 1014.1 1014.1 0.0
15/08:30pm 23.6 23.7 20.3 82 2.1 NNE 20 28 11 15 1013.7 1013.7 0.0
15/08:00pm 23.8 24.5 20.5 82 2.1 NNE 17 22 9 12 1013.2 1013.2 0.0
15/07:30pm 24.2 24.5 20.5 80 2.4 NNE 19 28 10 15 1012.7 1012.7 0.0
15/07:00pm 24.4 25.0 20.3 78 2.7 NE 17 26 9 14 1012.4 1012.4 0.0
15/06:30pm 24.9 24.5 20.2 75 3.1 NE 22 32 12 17 1012.1 1012.1 0.0
15/06:00pm 25.5 25.5 20.1 72 3.5 NE 20 28 11 15 1011.7 1011.7 0.0
15/05:30pm 27.3 26.7 20.6 67 4.4 NE 24 32 13 17 1011.3 1011.3 0.0
15/05:00pm 27.4 26.2 20.0 64 4.8 NE 26 39 14 21 1010.8 1010.8 0.0
15/04:30pm 27.9 26.5 18.9 58 5.8 NE 24 41 13 22 1010.8 1010.8 0.0
15/04:00pm 28.4 26.5 18.5 55 6.3 NE 26 39 14 21 1011.1 1011.1 0.0
15/03:30pm 28.3 26.5 18.7 56 6.2 NE 26 35 14 19 1011.0 1011.0 0.0
15/03:00pm 29.1 26.9 18.8 53 6.6 NE 28 39 15 21 1011.3 1011.3 0.0
15/02:30pm 28.8 28.1 20.3 60 5.6 NE 24 32 13 17 1011.3 1011.3 0.0
15/02:00pm 27.3 25.0 19.4 62 5.1 NE 30 43 16 23 1011.5 1011.5 0.0
15/01:30pm 26.8 24.7 18.9 62 5.1 NE 28 43 15 23 1011.5 1011.5 0.0
15/01:00pm 27.4 25.4 20.0 64 4.8 ENE 30 41 16 22 1011.7 1011.7 0.0
15/12:30pm 27.0 25.1 20.1 66 4.5 NE 30 46 16 25 1011.6 1011.6 0.0
15/12:00pm 27.1 25.6 20.2 66 4.5 NE 28 39 15 21 1011.8 1011.8 0.0
15/11:30am 26.4 24.3 20.5 70 3.9 ENE 32 41 17 22 1011.6 1011.6 0.0
15/11:00am 27.8 27.1 19.6 61 5.3 E 22 30 12 16 1011.3 1011.3 0.0
15/10:30am 29.0 31.2 20.4 59 5.7 NNE 9 15 5 8 1011.1 1011.1 0.0
15/10:00am 28.6 30.5 21.4 65 4.8 NNW 13 19 7 10 1011.1 1011.1 0.0
15/09:30am 27.1 28.2 20.4 66 4.4 NNW 15 20 8 11 1011.4 1011.4 0.0
15/09:00am 25.9 27.5 20.7 73 3.4 NNW 13 19 7 10 1011.4 1011.4 0.0
15/08:30am 24.2 25.8 19.9 77 2.8 N 11 15 6 8 1011.6 1011.6 0.0
15/08:00am 22.9 23.6 19.7 82 2.1 N 15 20 8 11 1011.8 1011.8 0.0
15/07:30am 22.1 23.5 19.5 85 1.7 N 11 15 6 8 1011.6 1011.6 0.0
15/07:00am 21.0 22.2 19.1 89 1.2 N 11 15 6 8 1011.5 1011.5 0.0
15/06:30am 20.3 21.1 19.0 92 0.8 N 13 17 7 9 1011.1 1011.1 0.0
15/06:00am 19.7 20.7 18.7 94 0.6 N 11 13 6 7 1010.6 1010.6 0.0
15/05:30am 19.9 20.9 18.6 92 0.8 N 11 15 6 8 1010.5 1010.5 0.0
15/05:00am 20.0 20.9 18.5 91 0.9 NNW 11 15 6 8 1010.2 1010.2 0.0
15/04:30am 20.6 21.2 18.7 89 1.2 N 13 17 7 9 1009.9 1009.9 0.0
15/04:00am 20.9 21.6 18.8 88 1.3 N 13 15 7 8 1009.8 1009.8 0.0
15/03:30am 21.2 21.9 18.9 87 1.4 N 13 17 7 9 1010.0 1010.0 0.0
15/03:00am 21.3 21.7 19.0 87 1.5 N 15 19 8 10 1010.1 1010.1 0.0
15/02:30am 21.6 21.8 19.3 87 1.5 N 17 20 9 11 1010.4 1010.4 0.0
15/02:00am 21.8 22.1 19.5 87 1.5 N 17 22 9 12 1010.6 1010.6 0.0
15/01:30am 21.5 23.3 19.6 89 1.2 N 9 15 5 8 1010.9 1010.9 0.0
15/01:00am 21.9 23.1 19.8 88 1.3 N 13 20 7 11 1011.2 1011.2 0.0
15/12:30am 22.0 23.2 19.9 88 1.3 N 13 19 7 10 1011.3 1011.3 0.0
15/12:00am 22.0 23.2 19.9 88 1.3 N 13 19 7 10 1011.5 1011.5 0.0
 
Date/Time
EDT
Temp
°C
App
Temp
°C
Dew
Point
°C
Rel
Hum
%
Delta-T
°C
Wind Press
QNH
hPa
Press
MSL
hPa
Rain since
9am
mm
Dir  Spd
km/h
Gust
km/h
Spd
kts
Gust
kts
14/11:30pm 22.1 23.7 20.0 88 1.3 N 11 17 6 9 1011.6 1011.6 0.0
14/11:00pm 22.6 24.0 20.3 87 1.5 NNE 13 19 7 10 1011.6 1011.6 0.0
14/10:30pm 22.9 24.0 20.4 86 1.6 NNE 15 22 8 12 1011.4 1011.4 0.0
14/10:00pm 23.1 23.9 20.6 86 1.6 NNE 17 24 9 13 1011.2 1011.2 0.0
14/09:30pm 23.3 23.5 20.6 85 1.8 NNE 20 30 11 16 1011.0 1011.0 0.0
14/09:00pm 23.4 22.4 20.5 84 1.9 NNE 26 35 14 19 1010.6 1010.6 0.0
14/08:30pm 23.8 22.8 20.5 82 2.1 NNE 26 39 14 21 1010.4 1010.4 0.0
14/08:00pm 24.0 23.0 20.5 81 2.3 NNE 26 39 14 21 1010.0 1010.0 0.0
14/07:30pm 24.4 23.6 20.1 77 2.8 NE 24 33 13 18 1009.6 1009.6 0.0
14/07:00pm 25.0 24.8 19.8 73 3.4 NE 20 28 11 15 1009.0 1009.0 0.0
14/06:30pm 26.4 26.2 19.8 67 4.3 ENE 20 26 11 14 1008.6 1008.6 0.0
14/06:00pm 27.6 27.1 19.1 59 5.5 NNE 20 28 11 15 1008.0 1008.0 0.0
14/05:30pm 28.4 28.0 18.8 56 6.2 NE 19 28 10 15 1008.0 1008.0 0.0
14/05:00pm 29.4 28.8 18.8 53 6.9 NE 20 28 11 15 1007.8 1007.8 0.0
14/04:30pm 29.2 28.1 18.6 52 6.8 NNE 22 32 12 17 1007.7 1007.7 0.0
14/04:00pm 29.3 28.2 18.7 52 6.8 NE 22 30 12 16 1008.0 1008.0 0.0
14/03:30pm 29.7 29.3 19.4 54 6.7 NE 20 28 11 15 1008.2 1008.2 0.0
14/03:00pm 28.7 27.3 18.8 55 6.4 NE 24 33 13 18 1008.3 1008.3 0.0
14/02:30pm 30.0 29.6 19.4 53 6.9 NE 20 26 11 14 1008.7 1008.7 0.0
14/02:00pm 29.0 28.2 19.3 55 6.3 NE 22 33 12 18 1009.1 1009.1 0.0
14/01:30pm 28.9 27.5 18.9 54 6.5 NE 24 33 13 18 1009.5 1009.5 0.0
14/01:00pm 28.7 27.4 19.1 56 6.2 ENE 24 33 13 18 1009.8 1009.8 0.0
14/12:30pm 28.9 27.9 18.9 54 6.5 ENE 22 30 12 16 1010.0 1010.0 0.0
14/12:00pm 28.0 26.6 18.7 57 6.0 ENE 24 33 13 18 1010.2 1010.2 0.0
14/11:30am 27.9 26.0 18.6 57 6.0 ENE 26 33 14 18 1010.4 1010.4 0.0
14/11:00am 27.9 26.5 18.9 58 5.8 ENE 24 30 13 16 1010.6 1010.6 0.0
14/10:30am 26.9 25.5 18.7 60 5.2 ENE 24 30 13 16 1010.9 1010.9 0.0
14/10:00am 27.1 27.5 18.9 61 5.3 ENE 15 20 8 11 1011.3 1011.3 0.0
14/09:30am 26.9 27.1 18.5 60 5.4 N 15 22 8 12 1011.4 1011.4 0.0
14/09:00am 25.2 25.7 18.4 66 4.3 N 13 20 7 11 1011.7 1011.7 0.0
14/08:30am 24.4 24.5 18.3 69 3.8 N 15 20 8 11 1011.8 1011.8 0.0
14/08:00am 23.1 22.0 18.6 76 2.8 N 22 30 12 16 1011.8 1011.8 0.0
14/07:30am 21.2 21.0 18.4 84 1.7 N 17 20 9 11 1012.0 1012.0 0.0
14/07:00am 20.2 21.4 18.3 89 1.2 N 9 15 5 8 1012.1 1012.1 0.0
14/06:30am 19.3 21.4 18.1 93 0.7 N 4 9 2 5 1012.0 1012.0 0.0
14/06:00am 18.7 19.7 17.7 94 0.6 N 9 13 5 7 1011.8 1011.8 0.0
14/05:30am 18.6 19.2 17.6 94 0.6 N 11 13 6 7 1011.7 1011.7 0.0
14/05:00am 18.8 19.7 17.6 93 0.7 N 9 13 5 7 1011.7 1011.7 0.0
14/04:30am 19.5 19.8 18.0 91 0.9 NNE 13 15 7 8 1011.5 1011.5 0.0
14/04:00am 19.4 20.2 18.1 92 0.8 NNE 11 15 6 8 1011.6 1011.6 0.0
14/03:30am 19.3 20.0 18.0 92 0.8 N 11 15 6 8 1011.7 1011.7 0.0
14/03:00am 19.4 20.5 18.1 92 0.8 N 9 11 5 6 1011.8 1011.8 0.0
14/02:30am 19.5 21.0 18.0 91 0.9 N 7 9 4 5 1012.1 1012.1 0.0
14/02:00am 19.7 20.5 18.2 91 0.9 N 11 13 6 7 1012.2 1012.2 0.0
14/01:30am 19.8 21.1 18.5 92 0.8 N 9 13 5 7 1012.6 1012.6 0.0
14/01:00am 19.7 20.9 18.2 91 0.9 N 9 11 5 6 1013.0 1013.0 0.0
14/12:48am 19.8 20.7 18.3 91 0.9 N 11 13 6 7 1013.3 1013.3 0.0
14/12:30am 19.8 21.0 18.3 91 0.9 N 9 13 5 7 1013.6 1013.6 0.0
14/12:28am 19.8 21.0 18.3 91 0.9 N 9 13 5 7 1013.6 1013.6 0.0
14/12:00am 19.9 20.6 18.0 89 1.2 N 11 13 6 7 1013.8 1013.8 0.0
 
Date/Time
EDT
Temp
°C
App
Temp
°C
Dew
Point
°C
Rel
Hum
%
Delta-T
°C
Wind Press
QNH
hPa
Press
MSL
hPa
Rain since
9am
mm
Dir  Spd
km/h
Gust
km/h
Spd
kts
Gust
kts
13/11:30pm 20.3 20.7 18.2 88 1.3 N 13 15 7 8 1014.0 1014.0 0.0
13/11:00pm 20.4 21.2 18.2 87 1.4 N 11 13 6 7 1014.2 1014.2 0.0
13/10:30pm 20.7 21.8 18.1 85 1.6 N 9 13 5 7 1014.5 1014.5 0.0
13/10:00pm 21.4 21.5 18.4 83 1.9 N 15 22 8 12 1014.5 1014.5 0.0
13/09:30pm 21.8 21.1 18.2 80 2.2 N 19 24 10 13 1014.3 1014.3 0.0
13/09:00pm 22.2 22.0 18.4 79 2.4 NNE 17 20 9 11 1014.2 1014.2 0.0
13/08:30pm 22.5 21.6 18.3 77 2.6 NNE 20 26 11 14 1014.2 1014.2 0.0

Other Formats:

Comma delimited format used in spreadsheet applications
http://www.bom.gov.au/fwo/IDN60801/IDN60801.94786.axf

JavaScript Object Notation format (JSON) in row-major order
http://www.bom.gov.au/fwo/IDN60801/IDN60801.94786.json